Time;durP1;ratioP1;P1;durP2;ratioP2;P2;SDS_P1;SDS_P2;PMS_P1;PMS_P2;Temp;Humidity;BMP_temperature;BMP_pressure;BME280_temperature;BME280_humidity;BME280_pressure;Samples;Min_cycle;Max_cycle;Signal;HPM_P1;HPM_P2
2022/07/01 00:00:15;;;;;;;7.93;7.00;;;21.30;99.90;;;;;;5028561;28;20264;-50
2022/07/01 00:02:42;;;;;;;7.53;6.93;;;21.40;99.90;;;;;;5040422;28;20842;-50
2022/07/01 00:05:09;;;;;;;7.90;7.30;;;21.40;99.90;;;;;;5043014;28;20191;-47
2022/07/01 00:07:45;;;;;;;7.63;6.93;;;21.50;99.90;;;;;;5040074;28;20321;-47
2022/07/01 00:10:12;;;;;;;7.03;6.23;;;21.60;99.90;;;;;;5043689;28;20226;-45
2022/07/01 00:12:40;;;;;;;5.97;5.43;;;21.60;99.90;;;;;;5041029;28;20231;-49
2022/07/01 00:15:09;;;;;;;4.80;4.37;;;21.80;99.90;;;;;;5027929;28;20207;-51
2022/07/01 00:17:36;;;;;;;8.17;4.57;;;21.80;99.90;;;;;;5037645;28;20779;-45
2022/07/01 00:20:03;;;;;;;4.03;3.67;;;22.00;99.90;;;;;;5041423;28;20319;-47
2022/07/01 00:22:30;;;;;;;4.17;3.77;;;22.00;99.90;;;;;;5042489;28;20623;-48
2022/07/01 00:24:57;;;;;;;5.83;2.70;;;22.00;99.90;;;;;;5040176;28;20210;-47
2022/07/01 00:27:24;;;;;;;4.13;2.60;;;21.90;99.90;;;;;;5043502;28;20199;-50
2022/07/01 00:29:52;;;;;;;2.73;2.53;;;21.90;99.90;;;;;;5024811;28;20203;-49
2022/07/01 00:32:19;;;;;;;2.27;2.00;;;21.80;99.90;;;;;;5042958;28;20304;-47
2022/07/01 00:34:46;;;;;;;2.83;1.73;;;21.80;99.90;;;;;;5038896;28;20203;-48
2022/07/01 00:37:12;;;;;;;4.17;2.47;;;21.70;99.90;;;;;;5043457;28;20238;-47
2022/07/01 00:39:39;;;;;;;2.77;1.90;;;21.60;99.90;;;;;;5040813;28;20218;-48
2022/07/01 00:42:07;;;;;;;3.07;2.03;;;21.50;99.90;;;;;;5042279;28;20195;-46
2022/07/01 00:44:33;;;;;;;2.40;1.70;;;21.40;99.90;;;;;;5035192;28;20214;-46
2022/07/01 00:47:04;;;;;;;2.20;2.00;;;21.40;99.90;;;;;;5033772;28;20199;-46
2022/07/01 00:49:31;;;;;;;2.17;1.70;;;21.20;99.90;;;;;;5041992;28;20718;-47
2022/07/01 00:51:58;;;;;;;2.23;2.00;;;21.00;99.90;;;;;;5040194;28;20214;-47
2022/07/01 00:54:26;;;;;;;2.17;1.77;;;21.00;99.90;;;;;;5042879;28;20234;-47
2022/07/01 00:56:53;;;;;;;3.70;2.10;;;21.00;99.90;;;;;;5034616;28;20282;-45
2022/07/01 00:59:20;;;;;;;7.30;2.87;;;20.90;99.90;;;;;;5046798;28;20195;-46
2022/07/01 01:01:46;;;;;;;2.37;1.87;;;20.80;99.90;;;;;;5027559;28;20232;-45
2022/07/01 01:04:15;;;;;;;4.13;2.07;;;20.80;99.90;;;;;;5046441;28;20222;-44
2022/07/01 01:06:42;;;;;;;2.70;2.00;;;20.50;99.90;;;;;;5034736;28;20265;-50
2022/07/01 01:09:09;;;;;;;3.20;2.10;;;20.50;99.90;;;;;;5043825;28;20199;-47
2022/07/01 01:11:36;;;;;;;3.93;2.40;;;20.40;99.90;;;;;;5046237;28;20202;-47
2022/07/01 01:14:02;;;;;;;2.27;2.07;;;20.30;99.90;;;;;;5044974;28;20231;-50
2022/07/01 01:16:29;;;;;;;3.33;1.80;;;20.10;99.90;;;;;;5030659;28;20207;-45
2022/07/01 01:18:56;;;;;;;5.13;2.23;;;20.00;99.90;;;;;;5043300;28;20660;-47
2022/07/01 01:21:25;;;;;;;3.57;2.00;;;19.90;99.90;;;;;;5043156;28;20199;-45
2022/07/01 01:23:52;;;;;;;2.27;2.07;;;19.90;99.90;;;;;;5046529;28;20233;-46
2022/07/01 01:26:21;;;;;;;7.80;2.63;;;20.00;99.90;;;;;;5042601;28;20199;-45
2022/07/01 01:28:49;;;;;;;3.00;2.10;;;19.90;99.90;;;;;;5046861;28;20210;-46
2022/07/01 01:31:16;;;;;;;2.33;2.00;;;19.80;99.90;;;;;;5042586;28;20199;-47
2022/07/01 01:33:43;;;;;;;5.60;2.90;;;19.70;99.90;;;;;;5031698;28;20254;-46
2022/07/01 01:36:10;;;;;;;6.53;2.33;;;19.60;99.90;;;;;;5043413;28;20201;-46
2022/07/01 01:38:38;;;;;;;3.00;2.40;;;19.60;99.90;;;;;;5046073;28;20565;-48
2022/07/01 01:41:05;;;;;;;5.67;2.70;;;19.60;99.90;;;;;;5044408;28;20225;-45
2022/07/01 01:43:34;;;;;;;4.43;2.77;;;19.50;99.90;;;;;;5044637;28;21199;-47
2022/07/01 01:46:02;;;;;;;2.70;2.50;;;19.40;99.90;;;;;;5045003;28;20230;-46
2022/07/01 01:48:29;;;;;;;3.57;2.43;;;19.30;99.90;;;;;;5018623;28;20292;-47
2022/07/01 01:50:56;;;;;;;5.13;2.70;;;19.30;99.90;;;;;;5045693;28;20614;-46
2022/07/01 01:53:24;;;;;;;4.20;3.07;;;19.30;99.90;;;;;;5042695;28;20452;-49
2022/07/01 01:55:52;;;;;;;2.97;2.77;;;19.20;99.90;;;;;;5046140;28;20199;-45
2022/07/01 01:58:19;;;;;;;3.27;2.57;;;19.20;99.90;;;;;;5035515;28;20191;-48
2022/07/01 02:00:45;;;;;;;3.87;3.40;;;19.10;99.90;;;;;;5046074;28;20245;-46
2022/07/01 02:03:13;;;;;;;4.37;2.80;;;19.10;99.90;;;;;;5041081;28;20587;-44
2022/07/01 02:05:40;;;;;;;2.87;2.53;;;19.10;99.90;;;;;;5031012;28;20211;-45
2022/07/01 02:08:07;;;;;;;3.20;2.90;;;19.10;99.90;;;;;;5041986;28;20210;-48
2022/07/01 02:10:33;;;;;;;3.00;2.80;;;19.00;99.90;;;;;;5044035;28;20191;-46
2022/07/01 02:13:02;;;;;;;3.97;2.43;;;19.10;99.90;;;;;;5043938;28;20718;-44
2022/07/01 02:15:30;;;;;;;3.03;2.83;;;19.10;99.90;;;;;;5043472;28;20187;-45
2022/07/01 02:17:57;;;;;;;2.80;2.53;;;19.10;99.90;;;;;;5045322;28;20234;-45
2022/07/01 02:20:24;;;;;;;3.43;2.90;;;19.20;99.90;;;;;;5027689;28;20215;-47
2022/07/01 02:22:52;;;;;;;3.20;2.90;;;19.20;99.90;;;;;;5045221;28;20216;-45
2022/07/01 02:25:19;;;;;;;3.13;2.80;;;19.20;99.90;;;;;;5041332;28;20192;-45
2022/07/01 02:27:46;;;;;;;4.27;2.80;;;19.10;99.90;;;;;;5045480;28;20294;-45
2022/07/01 02:30:15;;;;;;;3.43;3.13;;;19.20;99.90;;;;;;5041621;28;20195;-48
2022/07/01 02:32:42;;;;;;;3.30;2.97;;;19.20;99.90;;;;;;5038818;28;20223;-45
2022/07/01 02:35:10;;;;;;;3.53;3.33;;;19.20;99.90;;;;;;5024894;28;20203;-49
2022/07/01 02:37:37;;;;;;;3.03;2.83;;;19.10;99.90;;;;;;5042531;28;20270;-46
2022/07/01 02:40:05;;;;;;;5.17;3.43;;;19.20;99.90;;;;;;5036891;28;20206;-45
2022/07/01 02:42:35;;;;;;;3.43;3.20;;;19.10;99.90;;;;;;5037450;28;20982;-48
2022/07/01 02:45:03;;;;;;;6.30;3.30;;;19.20;99.90;;;;;;5037548;28;20544;-49
2022/07/01 02:47:36;;;;;;;3.80;3.00;;;19.20;99.90;;;;;;5039692;28;20282;-48
2022/07/01 02:50:03;;;;;;;3.60;3.30;;;19.20;99.90;;;;;;5043032;28;20206;-49
2022/07/01 02:52:30;;;;;;;3.83;3.53;;;19.20;99.90;;;;;;5028156;28;20297;-46
2022/07/01 02:54:57;;;;;;;3.30;3.00;;;19.30;99.90;;;;;;5043978;28;20602;-45
2022/07/01 02:57:24;;;;;;;3.67;3.30;;;19.30;99.90;;;;;;5041856;28;20199;-44
2022/07/01 02:59:51;;;;;;;4.37;3.40;;;19.30;99.90;;;;;;5045055;28;20203;-47
2022/07/01 03:02:19;;;;;;;6.23;3.50;;;19.30;99.90;;;;;;5040849;28;20211;-45
2022/07/01 03:04:49;;;;;;;4.43;3.10;;;19.30;99.90;;;;;;5044638;28;20199;-45
2022/07/01 03:07:16;;;;;;;3.97;3.30;;;19.30;99.90;;;;;;5026016;28;20211;-45
2022/07/01 03:09:43;;;;;;;4.40;3.30;;;19.30;99.90;;;;;;5044702;28;20199;-45
2022/07/01 03:12:27;;;;;;;4.30;3.90;;;19.30;99.90;;;;;;5041539;28;20195;-47
2022/07/01 03:14:56;;;;;;;5.93;3.97;;;19.30;99.90;;;;;;5044516;28;20202;-47
2022/07/01 03:17:23;;;;;;;4.33;4.03;;;19.30;99.90;;;;;;5038255;28;20208;-45
2022/07/01 03:19:52;;;;;;;3.93;3.63;;;19.30;99.90;;;;;;5043312;28;20712;-45
2022/07/01 03:22:21;;;;;;;4.63;4.07;;;19.20;99.90;;;;;;5025654;28;20904;-47
2022/07/01 03:24:48;;;;;;;13.20;6.13;;;19.20;99.90;;;;;;5043938;28;20200;-48
2022/07/01 03:27:15;;;;;;;6.27;4.83;;;19.20;99.90;;;;;;5040442;28;20260;-45
2022/07/01 03:29:42;;;;;;;7.50;4.43;;;19.30;99.90;;;;;;5044358;28;20195;-45
2022/07/01 03:32:10;;;;;;;7.97;5.77;;;19.30;99.90;;;;;;5041401;28;20238;-45
2022/07/01 03:34:37;;;;;;;6.67;4.77;;;19.30;99.90;;;;;;5043386;28;20207;-50
2022/07/01 03:37:06;;;;;;;5.13;4.47;;;19.20;99.90;;;;;;5034995;28;20286;-45
2022/07/01 03:39:34;;;;;;;4.70;4.20;;;19.20;99.90;;;;;;5038240;28;20427;-49
2022/07/01 03:42:01;;;;;;;4.80;4.40;;;19.30;99.90;;;;;;5042907;28;20668;-47
2022/07/01 03:44:28;;;;;;;6.23;4.73;;;19.20;99.90;;;;;;5041492;28;20265;-45
2022/07/01 03:46:55;;;;;;;4.90;4.20;;;19.20;99.90;;;;;;5044053;28;20217;-49
2022/07/01 03:49:22;;;;;;;6.90;5.03;;;19.20;99.90;;;;;;5038555;28;20807;-47
2022/07/01 03:51:49;;;;;;;5.93;5.33;;;19.20;99.90;;;;;;5043824;28;20199;-45
2022/07/01 03:54:31;;;;;;;7.53;6.80;;;19.20;99.90;;;;;;5024413;28;20219;-44
2022/07/01 03:56:58;;;;;;;8.97;7.80;;;19.10;99.90;;;;;;5043145;28;20199;-46
2022/07/01 03:59:25;;;;;;;9.10;8.20;;;19.10;99.90;;;;;;5040850;28;20261;-45
2022/07/01 04:01:53;;;;;;;7.83;7.13;;;19.10;99.90;;;;;;5040119;28;20625;-46
2022/07/01 04:04:20;;;;;;;8.10;7.30;;;19.10;99.90;;;;;;5039500;28;20808;-46
2022/07/01 04:06:47;;;;;;;9.63;7.60;;;19.10;99.90;;;;;;5029226;28;20218;-49
2022/07/01 04:09:17;;;;;;;8.03;6.63;;;19.10;99.90;;;;;;5029161;28;20211;-46
2022/07/01 04:11:46;;;;;;;7.33;6.73;;;19.10;99.90;;;;;;5027822;28;20207;-49
2022/07/01 04:14:13;;;;;;;6.93;6.27;;;19.10;99.90;;;;;;5042159;28;20277;-49
2022/07/01 04:16:41;;;;;;;7.57;6.37;;;19.10;99.90;;;;;;5037103;28;20668;-48
2022/07/01 04:19:09;;;;;;;7.50;6.47;;;19.10;99.90;;;;;;5026951;28;20286;-47
2022/07/01 04:24:22;;;;;;;9.13;7.10;;;19.10;99.90;;;;;;5019616;28;20187;-47
2022/07/01 04:26:51;;;;;;;7.83;6.80;;;19.00;99.90;;;;;;5035169;28;20262;-49
2022/07/01 04:29:18;;;;;;;7.70;7.00;;;19.00;99.90;;;;;;5030198;28;20211;-45
2022/07/01 04:31:45;;;;;;;7.33;6.63;;;19.00;99.90;;;;;;5042189;28;20199;-49
2022/07/01 04:34:12;;;;;;;7.37;6.67;;;18.90;99.90;;;;;;5038886;28;20219;-47
2022/07/01 04:36:40;;;;;;;8.30;7.50;;;18.90;99.90;;;;;;5031981;28;20212;-46
2022/07/01 04:39:07;;;;;;;8.20;7.33;;;18.80;99.90;;;;;;5019644;28;20203;-49
2022/07/01 04:44:21;;;;;;;8.73;7.93;;;18.70;99.90;;;;;;5029814;28;20207;-46
2022/07/01 04:46:48;;;;;;;9.03;7.63;;;18.70;99.90;;;;;;5038454;28;20203;-48
2022/07/01 04:49:14;;;;;;;10.60;8.87;;;18.70;99.90;;;;;;5033646;28;20202;-45
2022/07/01 04:51:41;;;;;;;7.87;7.17;;;18.70;99.90;;;;;;5036939;28;20202;-44
2022/07/01 04:54:09;;;;;;;8.73;7.07;;;;;;;;;;5020922;28;20222;-45
2022/07/01 04:56:37;;;;;;;7.70;7.00;;;18.70;99.90;;;;;;5041008;28;20203;-47
2022/07/01 04:59:04;;;;;;;7.80;7.10;;;18.50;99.90;;;;;;5025031;28;20222;-45
2022/07/01 05:01:32;;;;;;;8.80;8.03;;;18.50;99.90;;;;;;5034341;28;20191;-48
2022/07/01 05:04:00;;;;;;;8.93;6.50;;;18.50;99.90;;;;;;5039958;28;20220;-48
2022/07/01 05:06:27;;;;;;;9.67;6.87;;;18.40;99.90;;;;;;5032666;28;20278;-47
2022/07/01 05:08:55;;;;;;;11.97;7.20;;;18.30;99.90;;;;;;5041226;28;20215;-49
2022/07/01 05:11:22;;;;;;;11.80;7.30;;;18.30;99.90;;;;;;5025445;28;20201;-46
2022/07/01 05:13:49;;;;;;;16.47;8.27;;;18.20;99.90;;;;;;5031634;28;20224;-46
2022/07/01 05:16:15;;;;;;;16.57;8.27;;;18.20;99.90;;;;;;5029337;28;20199;-45
2022/07/01 05:24:13;;;;;;;11.27;6.93;;;18.10;99.90;;;;;;5025314;28;20241;-50
2022/07/01 05:26:40;;;;;;;15.23;6.57;;;18.10;99.90;;;;;;5025434;28;20207;-45
2022/07/01 05:29:07;;;;;;;17.90;7.70;;;17.90;99.90;;;;;;5030966;28;20203;-48
2022/07/01 05:31:33;;;;;;;11.83;6.00;;;17.90;99.90;;;;;;5037002;28;20605;-47
2022/07/01 05:34:02;;;;;;;11.57;5.70;;;17.80;99.90;;;;;;5040751;28;20711;-47
2022/07/01 05:36:29;;;;;;;10.23;5.63;;;17.70;99.90;;;;;;5029304;28;20218;-46
2022/07/01 05:38:55;;;;;;;10.47;4.37;;;17.60;99.90;;;;;;5030642;28;20207;-45
2022/07/01 05:41:23;;;;;;;10.17;3.60;;;17.50;99.90;;;;;;5032315;28;20211;-52
2022/07/01 05:43:49;;;;;;;8.20;3.33;;;17.40;99.90;;;;;;5022470;28;20219;-45
2022/07/01 05:46:16;;;;;;;9.13;3.47;;;17.40;99.90;;;;;;5036751;28;20926;-46
2022/07/01 05:48:46;;;;;;;9.60;3.90;;;17.30;99.90;;;;;;5040664;28;20195;-45
2022/07/01 05:51:14;;;;;;;13.57;3.63;;;17.30;99.90;;;;;;5041064;28;20278;-47
2022/07/01 05:53:43;;;;;;;8.83;3.27;;;17.20;99.90;;;;;;5025296;28;20219;-45
2022/07/01 05:56:10;;;;;;;7.87;3.00;;;17.20;99.90;;;;;;5032779;28;20257;-46
2022/07/01 05:58:37;;;;;;;7.80;2.43;;;17.20;99.90;;;;;;5028711;28;20207;-47
2022/07/01 06:01:04;;;;;;;8.90;2.50;;;17.00;99.90;;;;;;5043950;28;20581;-47
2022/07/01 06:03:31;;;;;;;7.57;2.70;;;16.90;99.90;;;;;;5043918;28;20211;-47
2022/07/01 06:05:58;;;;;;;6.33;2.10;;;16.80;99.90;;;;;;5045553;28;20199;-46
2022/07/01 06:08:26;;;;;;;7.17;1.90;;;16.80;99.90;;;;;;5042691;28;20198;-49
2022/07/01 06:10:53;;;;;;;6.57;1.90;;;16.90;99.90;;;;;;5036573;28;20207;-45
2022/07/01 06:13:20;;;;;;;4.90;1.80;;;16.80;99.90;;;;;;5025214;28;20230;-46
2022/07/01 06:15:47;;;;;;;2.03;1.63;;;16.80;99.90;;;;;;5045488;28;20222;-49
2022/07/01 06:18:13;;;;;;;4.50;1.90;;;16.70;99.90;;;;;;5041721;28;20258;-46
2022/07/01 06:20:40;;;;;;;2.73;1.60;;;16.70;99.90;;;;;;5045257;28;20729;-45
2022/07/01 06:23:07;;;;;;;2.47;1.70;;;16.70;99.90;;;;;;5042969;28;20245;-46
2022/07/01 06:25:36;;;;;;;5.67;2.07;;;16.70;99.90;;;;;;5038412;28;20203;-47
2022/07/01 06:28:03;;;;;;;1.67;1.57;;;16.70;99.90;;;;;;5036240;28;20298;-48
2022/07/01 06:30:29;;;;;;;3.43;1.70;;;16.70;99.90;;;;;;5036226;28;20207;-45
2022/07/01 06:32:56;;;;;;;2.50;1.40;;;16.70;99.90;;;;;;5045301;28;20234;-49
2022/07/01 06:35:23;;;;;;;4.30;1.57;;;16.60;99.90;;;;;;5041680;28;20230;-46
2022/07/01 06:37:50;;;;;;;8.33;1.97;;;16.60;99.90;;;;;;5045321;28;20245;-44
2022/07/01 06:40:17;;;;;;;6.00;1.97;;;16.60;99.90;;;;;;5035761;28;20834;-45
2022/07/01 06:42:46;;;;;;;2.87;1.50;;;16.60;99.90;;;;;;5045238;28;20223;-45
2022/07/01 06:45:13;;;;;;;6.57;1.70;;;16.60;99.90;;;;;;5026817;28;20211;-50
2022/07/01 06:47:40;;;;;;;4.63;1.53;;;16.60;99.90;;;;;;5042387;28;20322;-53
2022/07/01 06:50:08;;;;;;;3.23;1.97;;;16.60;99.90;;;;;;5042409;28;20210;-48
2022/07/01 06:52:35;;;;;;;3.47;1.83;;;16.50;99.90;;;;;;5043732;28;21059;-44
2022/07/01 06:55:02;;;;;;;4.27;1.53;;;16.60;99.90;;;;;;5041487;28;20247;-47
2022/07/01 06:57:29;;;;;;;3.00;1.60;;;16.60;99.90;;;;;;5038631;28;20210;-44
2022/07/01 06:59:57;;;;;;;8.63;2.20;;;16.50;99.90;;;;;;5030255;28;20210;-48
2022/07/01 07:02:24;;;;;;;4.73;1.57;;;16.50;99.90;;;;;;5041224;28;20219;-45
2022/07/01 07:04:54;;;;;;;4.80;1.80;;;16.50;99.90;;;;;;5044632;28;20195;-49
2022/07/01 07:07:21;;;;;;;3.53;1.90;;;16.50;99.90;;;;;;5040947;28;20899;-45
2022/07/01 07:09:48;;;;;;;5.57;2.23;;;16.50;99.90;;;;;;5044916;28;20203;-48
2022/07/01 07:12:15;;;;;;;2.97;1.87;;;16.50;99.90;;;;;;5029828;28;20238;-48
2022/07/01 07:14:42;;;;;;;2.07;1.80;;;16.50;99.90;;;;;;5044288;28;20219;-46
2022/07/01 07:17:10;;;;;;;2.90;1.87;;;16.60;99.90;;;;;;5026173;28;20695;-47
2022/07/01 07:19:37;;;;;;;2.47;1.47;;;16.60;99.90;;;;;;5040942;28;20787;-47
2022/07/01 07:22:04;;;;;;;4.00;2.20;;;16.60;99.90;;;;;;5042745;28;20195;-48
2022/07/01 07:24:31;;;;;;;2.30;1.57;;;16.70;99.90;;;;;;5042417;28;20245;-46
2022/07/01 07:26:58;;;;;;;3.30;2.00;;;16.60;99.90;;;;;;5042841;28;20735;-50
2022/07/01 07:29:24;;;;;;;2.50;2.30;;;16.60;99.90;;;;;;5035308;28;20206;-46
2022/07/01 07:31:51;;;;;;;4.17;1.90;;;16.60;99.90;;;;;;5029441;28;20207;-45
2022/07/01 07:34:19;;;;;;;2.63;2.13;;;16.60;99.90;;;;;;5039624;28;20215;-48
2022/07/01 07:36:46;;;;;;;5.27;2.10;;;16.60;99.90;;;;;;5044136;28;20203;-46
2022/07/01 07:39:12;;;;;;;2.47;1.90;;;16.60;99.90;;;;;;5040732;28;20210;-45
2022/07/01 07:41:40;;;;;;;3.67;2.10;;;16.60;99.90;;;;;;5044072;28;20203;-47
2022/07/01 07:44:06;;;;;;;4.30;1.90;;;16.70;99.90;;;;;;5029942;28;20223;-45
2022/07/01 07:46:33;;;;;;;3.33;2.53;;;16.70;99.90;;;;;;5026744;28;20218;-46
2022/07/01 07:49:00;;;;;;;4.37;2.50;;;16.70;99.90;;;;;;5039649;28;20573;-46
2022/07/01 07:51:28;;;;;;;4.47;2.37;;;16.60;99.90;;;;;;5040990;28;20191;-47
2022/07/01 07:53:55;;;;;;;2.50;2.30;;;16.60;99.90;;;;;;5043548;28;20223;-47
2022/07/01 07:56:22;;;;;;;3.47;2.40;;;16.60;99.90;;;;;;5040256;28;20225;-46
2022/07/01 07:58:50;;;;;;;2.93;2.23;;;16.50;99.90;;;;;;5037829;28;20206;-47
2022/07/01 08:01:17;;;;;;;2.27;2.07;;;16.50;99.90;;;;;;5025205;28;20211;-45
2022/07/01 08:03:45;;;;;;;1.97;1.80;;;16.40;99.90;;;;;;5042934;28;20215;-48
2022/07/01 08:06:12;;;;;;;2.73;2.53;;;16.30;99.90;;;;;;5034880;28;20222;-48
2022/07/01 08:08:40;;;;;;;5.33;2.40;;;16.40;99.90;;;;;;5038743;28;20207;-45
2022/07/01 08:11:07;;;;;;;3.67;2.30;;;16.30;99.90;;;;;;5041359;28;20207;-45
2022/07/01 08:13:34;;;;;;;2.23;2.03;;;16.30;99.90;;;;;;5036050;28;20302;-46
2022/07/01 08:16:02;;;;;;;3.63;2.27;;;16.30;99.90;;;;;;5036491;28;20305;-49
2022/07/01 08:18:29;;;;;;;3.80;2.30;;;16.30;99.90;;;;;;5018399;28;20244;-47
2022/07/01 08:20:55;;;;;;;3.00;2.70;;;16.20;99.90;;;;;;5028373;28;20195;-45
2022/07/01 08:23:23;;;;;;;2.70;2.47;;;16.20;99.90;;;;;;5036825;28;20614;-50
2022/07/01 08:25:52;;;;;;;2.73;2.53;;;16.30;99.90;;;;;;5029363;28;20246;-45
2022/07/01 08:28:19;;;;;;;4.07;2.27;;;16.30;99.90;;;;;;5037462;28;20196;-45
2022/07/01 08:30:46;;;;;;;3.33;2.33;;;16.30;99.90;;;;;;5025116;28;20206;-47
2022/07/01 08:33:13;;;;;;;3.63;2.30;;;16.20;99.90;;;;;;5025563;28;20234;-47
2022/07/01 08:35:40;;;;;;;3.67;2.70;;;16.20;99.90;;;;;;5041437;28;20222;-47
2022/07/01 08:38:08;;;;;;;3.87;3.00;;;16.30;99.90;;;;;;5041171;28;20275;-45
2022/07/01 08:40:35;;;;;;;3.20;2.90;;;16.30;99.90;;;;;;5027518;28;20211;-48
2022/07/01 08:43:05;;;;;;;4.17;3.00;;;16.30;99.90;;;;;;5039949;28;20223;-47
2022/07/01 08:45:33;;;;;;;3.23;2.90;;;16.30;99.90;;;;;;5038472;28;20207;-48
2022/07/01 08:48:01;;;;;;;3.30;3.07;;;16.30;99.90;;;;;;5026592;28;20195;-47
2022/07/01 08:50:28;;;;;;;3.30;2.90;;;16.30;99.90;;;;;;5026893;28;20203;-44
2022/07/01 08:52:55;;;;;;;3.80;3.50;;;16.30;99.90;;;;;;5034943;28;20269;-45
2022/07/01 08:55:23;;;;;;;4.27;3.87;;;16.30;99.90;;;;;;5036945;28;20219;-44
2022/07/01 08:57:51;;;;;;;4.87;3.73;;;16.30;99.90;;;;;;5038523;28;20203;-47
2022/07/01 09:00:20;;;;;;;4.50;4.10;;;16.30;99.90;;;;;;5034195;28;20602;-45
2022/07/01 09:02:51;;;;;;;4.63;4.23;;;16.40;99.90;;;;;;5033299;28;20230;-46
2022/07/01 09:05:18;;;;;;;4.00;3.63;;;16.40;99.90;;;;;;5027972;28;20282;-47
2022/07/01 09:07:46;;;;;;;4.27;3.77;;;16.40;99.90;;;;;;5035790;28;20211;-46
2022/07/01 09:10:14;;;;;;;4.83;4.43;;;16.40;99.90;;;;;;5035452;28;20218;-46
2022/07/01 09:12:41;;;;;;;4.33;3.80;;;16.40;99.90;;;;;;5030785;28;20219;-51
2022/07/01 09:15:25;;;;;;;4.60;4.20;;;16.40;99.90;;;;;;5029664;28;20219;-48
2022/07/01 09:17:54;;;;;;;4.20;3.90;;;16.40;99.90;;;;;;5031090;28;20209;-45
2022/07/01 09:20:29;;;;;;;4.20;3.70;;;16.40;99.90;;;;;;5041709;28;20195;-47
2022/07/01 09:23:07;;;;;;;5.23;3.83;;;16.40;99.90;;;;;;5026751;28;20990;-45
2022/07/01 09:25:39;;;;;;;4.60;4.30;;;16.40;99.90;;;;;;5041011;28;20278;-60
2022/07/01 09:28:08;;;;;;;4.50;4.00;;;16.40;99.90;;;;;;5037337;28;20284;-60
2022/07/01 09:30:38;;;;;;;4.70;4.20;;;16.40;99.90;;;;;;5045090;28;20750;-61
2022/07/01 09:33:06;;;;;;;3.87;3.53;;;16.40;99.90;;;;;;5033628;28;20231;-60
2022/07/01 09:35:34;;;;;;;4.17;3.87;;;16.40;99.90;;;;;;5039330;28;20219;-59
2022/07/01 09:38:01;;;;;;;4.33;4.00;;;16.40;99.90;;;;;;5031722;28;20191;-59
2022/07/01 09:40:47;;;;;;;4.37;4.10;;;16.40;99.90;;;;;;5044355;28;20199;-59
2022/07/01 09:43:18;;;;;;;5.60;3.90;;;16.50;99.90;;;;;;5034736;28;20852;-59
2022/07/01 09:45:58;;;;;;;6.43;3.90;;;16.50;99.90;;;;;;5038439;28;20354;-48
2022/07/01 09:48:27;;;;;;;3.73;3.47;;;16.40;99.90;;;;;;5036766;28;20203;-44
2022/07/01 09:50:55;;;;;;;4.73;3.83;;;16.40;99.90;;;;;;5016321;28;20211;-46
2022/07/01 09:53:22;;;;;;;4.20;3.80;;;16.40;99.90;;;;;;5035561;28;20623;-46
2022/07/01 09:55:48;;;;;;;4.80;3.70;;;16.40;99.90;;;;;;5041306;28;20258;-45
2022/07/01 09:58:16;;;;;;;4.40;4.00;;;16.40;99.90;;;;;;5032152;28;20207;-44
2022/07/01 10:00:43;;;;;;;5.53;4.27;;;16.50;99.90;;;;;;5028272;28;20203;-46
2022/07/01 10:03:12;;;;;;;5.77;4.60;;;16.50;99.90;;;;;;5036326;28;20223;-44
2022/07/01 10:05:44;;;;;;;4.87;4.30;;;16.60;99.90;;;;;;5020500;28;20210;-44
2022/07/01 10:08:47;;;;;;;4.50;4.13;;;16.60;99.90;;;;;;5023886;28;20204;-44
2022/07/01 10:11:56;;;;;;;5.17;4.10;;;16.70;99.90;;;;;;5035655;28;20211;-46
2022/07/01 10:14:24;;;;;;;4.20;3.80;;;16.70;99.90;;;;;;5027224;28;20915;-45
2022/07/01 10:16:51;;;;;;;4.00;3.60;;;16.60;99.90;;;;;;5042040;28;20200;-45
2022/07/01 10:19:30;;;;;;;3.83;3.53;;;16.60;99.90;;;;;;5028537;28;20211;-46
2022/07/01 10:22:02;;;;;;;3.80;3.50;;;16.60;99.90;;;;;;5020517;28;20290;-44
2022/07/01 10:24:29;;;;;;;4.53;3.43;;;16.50;99.90;;;;;;5040429;28;20317;-44
2022/07/01 10:27:01;;;;;;;4.17;3.77;;;16.50;99.90;;;;;;5037684;28;20210;-47
2022/07/01 10:29:33;;;;;;;3.70;3.40;;;16.50;99.90;;;;;;5027286;28;20300;-46
2022/07/01 10:32:02;;;;;;;4.57;3.87;;;16.50;99.90;;;;;;5036759;28;20207;-49
2022/07/01 10:34:38;;;;;;;4.63;3.43;;;16.50;99.90;;;;;;5024979;28;20211;-44
2022/07/01 10:37:09;;;;;;;4.60;4.20;;;16.50;99.90;;;;;;5016647;28;20302;-46
2022/07/01 10:40:01;;;;;;;5.17;3.67;;;16.50;99.90;;;;;;5039866;28;20203;-45
2022/07/01 10:42:31;;;;;;;4.40;4.00;;;16.50;99.90;;;;;;5034085;28;20216;-46
2022/07/01 10:45:05;;;;;;;4.57;4.00;;;16.50;99.90;;;;;;5030734;28;20218;-46
2022/07/01 10:47:32;;;;;;;7.40;4.63;;;16.50;99.90;;;;;;5030534;28;20202;-44
2022/07/01 10:50:08;;;;;;;4.37;3.97;;;16.60;99.90;;;;;;5032802;28;20702;-47
2022/07/01 10:52:36;;;;;;;4.57;3.90;;;16.60;99.90;;;;;;5028592;28;20222;-44
2022/07/01 10:55:04;;;;;;;4.57;4.17;;;16.60;99.90;;;;;;5037280;28;20226;-45
2022/07/01 10:57:42;;;;;;;5.03;4.10;;;16.60;99.90;;;;;;5040334;28;20194;-45
2022/07/01 11:00:32;;;;;;;6.23;4.50;;;16.60;99.90;;;;;;5034481;28;20281;-44
2022/07/01 11:03:16;;;;;;;4.73;4.33;;;16.60;99.90;;;;;;5029782;28;20600;-46
2022/07/01 11:05:47;;;;;;;4.70;4.20;;;16.60;99.90;;;;;;5044671;28;20207;-45
2022/07/01 11:08:15;;;;;;;4.50;4.10;;;16.70;99.90;;;;;;5023929;28;20214;-46
2022/07/01 11:10:42;;;;;;;5.40;4.40;;;16.60;99.90;;;;;;5037013;28;20211;-45
2022/07/01 11:13:13;;;;;;;6.60;5.07;;;16.60;99.90;;;;;;5039213;28;20219;-44
2022/07/01 11:15:40;;;;;;;5.43;4.87;;;16.60;99.90;;;;;;5030296;28;20223;-45
2022/07/01 11:18:08;;;;;;;5.97;5.03;;;16.70;99.90;;;;;;5040741;28;20294;-45
2022/07/01 11:20:35;;;;;;;6.87;5.53;;;16.70;99.90;;;;;;5037889;28;20199;-48
2022/07/01 11:23:03;;;;;;;6.23;5.10;;;16.70;99.90;;;;;;5033758;28;20684;-46
2022/07/01 11:25:31;;;;;;;5.90;5.50;;;16.70;99.90;;;;;;5025309;28;20214;-45
2022/07/01 11:27:58;;;;;;;6.40;5.70;;;16.60;99.90;;;;;;5044497;28;20683;-49
2022/07/01 11:30:25;;;;;;;5.97;5.57;;;16.60;99.90;;;;;;5035271;28;20187;-45
2022/07/01 11:32:54;;;;;;;7.37;6.43;;;16.70;99.90;;;;;;5036851;28;20215;-47
2022/07/01 11:40:58;;;;;;;8.73;6.50;;;16.80;99.90;;;;;;5039943;28;20210;-46
2022/07/01 11:43:26;;;;;;;6.60;6.07;;;16.90;99.90;;;;;;5032000;28;20219;-45
2022/07/01 11:45:54;;;;;;;6.17;5.57;;;16.90;99.90;;;;;;5030584;28;20207;-47
2022/07/01 11:48:32;;;;;;;6.33;5.93;;;16.90;99.90;;;;;;5031771;28;20257;-45
2022/07/01 11:51:00;;;;;;;5.87;5.37;;;17.00;99.90;;;;;;5031331;28;20555;-47
2022/07/01 11:53:29;;;;;;;6.57;6.00;;;17.00;99.90;;;;;;5026448;28;20221;-48
2022/07/01 11:55:56;;;;;;;7.17;6.17;;;17.00;99.90;;;;;;5025333;28;20811;-46
2022/07/01 11:58:23;;;;;;;6.40;6.00;;;16.90;99.90;;;;;;5033631;28;20199;-46
2022/07/01 12:00:49;;;;;;;6.33;5.83;;;16.90;99.90;;;;;;5043089;28;20195;-46
2022/07/01 12:03:31;;;;;;;6.30;5.80;;;16.90;99.90;;;;;;5039361;28;20946;-45
2022/07/01 12:05:58;;;;;;;7.30;5.47;;;17.00;99.90;;;;;;5037807;28;20222;-46
2022/07/01 12:08:26;;;;;;;5.87;5.20;;;16.90;99.90;;;;;;5041077;28;20195;-46
2022/07/01 12:10:57;;;;;;;5.53;5.13;;;17.00;99.90;;;;;;5029145;28;20218;-46
2022/07/01 12:13:25;;;;;;;6.10;5.13;;;16.90;99.90;;;;;;5032618;28;20219;-51
2022/07/01 12:15:52;;;;;;;7.57;5.07;;;16.80;99.90;;;;;;5038916;28;20688;-46
2022/07/01 12:18:19;;;;;;;6.00;5.43;;;16.80;99.90;;;;;;5037144;28;20273;-46
2022/07/01 12:20:54;;;;;;;5.77;5.03;;;16.80;99.90;;;;;;5043235;28;20204;-45
2022/07/01 12:23:21;;;;;;;5.47;4.97;;;16.90;99.90;;;;;;5039616;28;20217;-49
2022/07/01 12:25:50;;;;;;;5.90;5.23;;;16.90;99.90;;;;;;5029120;28;20273;-45
2022/07/01 12:28:29;;;;;;;5.43;4.93;;;16.90;99.90;;;;;;5033206;28;20206;-46
2022/07/01 12:31:07;;;;;;;5.70;5.10;;;17.00;99.90;;;;;;5041118;28;20229;-45
2022/07/01 12:33:39;;;;;;;5.60;5.10;;;16.90;99.90;;;;;;5042116;28;20215;-46
2022/07/01 12:36:07;;;;;;;5.27;4.87;;;17.00;99.90;;;;;;5040857;28;20215;-45
2022/07/01 12:38:35;;;;;;;5.50;5.03;;;17.10;99.90;;;;;;5036131;28;20234;-46
2022/07/01 12:41:02;;;;;;;6.30;5.50;;;17.10;99.90;;;;;;5028709;28;20199;-46
2022/07/01 12:43:36;;;;;;;5.90;5.40;;;17.20;99.90;;;;;;5026147;28;20226;-48
2022/07/01 12:46:03;;;;;;;6.47;5.10;;;17.20;99.90;;;;;;5035937;28;20199;-52
2022/07/01 12:48:47;;;;;;;6.83;6.13;;;17.20;99.90;;;;;;5028853;28;21116;-48
2022/07/01 12:51:15;;;;;;;5.27;4.60;;;17.30;99.90;;;;;;5038432;28;20195;-46
2022/07/01 12:53:42;;;;;;;5.37;4.87;;;17.40;99.90;;;;;;5046510;28;20223;-46
2022/07/01 12:56:22;;;;;;;4.70;4.40;;;17.60;99.90;;;;;;5033113;28;20223;-46
2022/07/01 12:58:52;;;;;;;6.50;5.00;;;17.60;99.90;;;;;;5038341;28;20276;-46
2022/07/01 13:01:18;;;;;;;4.73;4.30;;;17.70;99.90;;;;;;5043049;28;20206;-45
2022/07/01 13:03:45;;;;;;;5.23;4.27;;;17.80;99.90;;;;;;5046812;28;20300;-48
2022/07/01 13:06:12;;;;;;;6.20;5.00;;;17.80;99.90;;;;;;5043382;28;20203;-46
2022/07/01 13:08:39;;;;;;;4.97;4.60;;;17.90;99.90;;;;;;5047249;28;20214;-45